Time;durP1;ratioP1;P1;durP2;ratioP2;P2;SDS_P1;SDS_P2;PMS_P1;PMS_P2;Temp;Humidity;BMP_temperature;BMP_pressure;BME280_temperature;BME280_humidity;BME280_pressure;Samples;Min_cycle;Max_cycle;Signal;HPM_P1;HPM_P2
2024/01/09 00:00:26;;;;;;;17.80;9.73;;;-8.50;99.90;;;;;;5223198;28;20175;-50
2024/01/09 00:02:57;;;;;;;25.67;9.70;;;-8.50;99.90;;;;;;5209170;28;20196;-50
2024/01/09 00:05:28;;;;;;;15.47;9.17;;;-8.50;99.90;;;;;;5226814;28;20179;-50
2024/01/09 00:07:58;;;;;;;19.90;8.73;;;-8.60;99.90;;;;;;5223809;28;20289;-50
2024/01/09 00:10:29;;;;;;;22.33;8.57;;;-8.60;99.90;;;;;;5207513;28;20188;-48
2024/01/09 00:12:59;;;;;;;18.80;9.63;;;-8.70;99.90;;;;;;5224010;28;20214;-48
2024/01/09 00:15:31;;;;;;;24.37;9.87;;;-8.60;99.90;;;;;;5226345;28;20668;-49
2024/01/09 00:18:01;;;;;;;17.77;8.23;;;-8.70;99.90;;;;;;5208456;28;20569;-51
2024/01/09 00:20:32;;;;;;;16.13;8.70;;;-8.70;99.90;;;;;;5206786;28;20428;-51
2024/01/09 00:23:03;;;;;;;19.90;8.63;;;-8.70;99.90;;;;;;5205175;28;20218;-49
2024/01/09 00:25:33;;;;;;;17.20;8.50;;;-8.70;99.90;;;;;;5226111;28;20577;-50
2024/01/09 00:28:04;;;;;;;17.23;8.80;;;-8.70;99.90;;;;;;5206525;28;20202;-47
2024/01/09 00:30:35;;;;;;;16.70;8.60;;;-8.60;99.90;;;;;;5221661;28;20288;-48
2024/01/09 00:33:06;;;;;;;16.93;8.00;;;-8.70;99.90;;;;;;5224921;28;20589;-50
2024/01/09 00:35:36;;;;;;;19.13;9.20;;;-8.70;99.90;;;;;;5227204;28;20189;-49
2024/01/09 00:38:07;;;;;;;17.60;8.50;;;-8.70;99.90;;;;;;5221614;28;20214;-49
2024/01/09 00:40:39;;;;;;;18.37;8.60;;;-8.70;99.90;;;;;;5212361;28;20188;-52
2024/01/09 00:43:11;;;;;;;14.17;8.57;;;-8.70;99.90;;;;;;5223033;28;20181;-49
2024/01/09 00:45:41;;;;;;;18.93;8.73;;;-8.70;99.90;;;;;;5220528;28;20955;-49
2024/01/09 00:48:12;;;;;;;19.67;9.73;;;-8.70;99.90;;;;;;5207713;28;20464;-49
2024/01/09 00:50:43;;;;;;;24.27;9.83;;;-8.70;99.90;;;;;;5229560;28;20658;-50
2024/01/09 00:53:13;;;;;;;16.87;9.30;;;-8.70;99.90;;;;;;5228164;28;20189;-49
2024/01/09 00:55:44;;;;;;;29.97;11.00;;;-8.80;99.90;;;;;;5221668;28;20207;-49
2024/01/09 00:58:15;;;;;;;25.20;9.87;;;-8.80;99.90;;;;;;5204693;28;20482;-50
2024/01/09 01:00:46;;;;;;;16.50;7.90;;;-8.80;99.90;;;;;;5196787;28;20198;-50
2024/01/09 01:03:16;;;;;;;18.90;10.73;;;-8.80;99.90;;;;;;5224982;28;20187;-48
2024/01/09 01:05:47;;;;;;;25.13;9.07;;;-8.80;99.90;;;;;;5223469;28;20429;-48
2024/01/09 01:08:18;;;;;;;15.90;7.90;;;-8.80;99.90;;;;;;5228669;28;20205;-49
2024/01/09 01:10:48;;;;;;;23.60;9.03;;;-8.80;99.90;;;;;;5218384;28;20205;-50
2024/01/09 01:13:19;;;;;;;22.93;9.37;;;-8.80;99.90;;;;;;5210142;28;20186;-52
2024/01/09 01:15:49;;;;;;;16.60;9.47;;;-8.80;99.90;;;;;;5207466;28;20225;-49
2024/01/09 01:18:20;;;;;;;14.30;9.20;;;-8.80;99.90;;;;;;5203372;28;20221;-50
2024/01/09 01:20:51;;;;;;;18.97;9.03;;;-8.80;99.90;;;;;;5225279;28;20199;-50
2024/01/09 01:23:21;;;;;;;13.60;8.20;;;-8.80;99.90;;;;;;5220964;28;20612;-48
2024/01/09 01:25:52;;;;;;;13.97;7.70;;;-8.80;99.90;;;;;;5223888;28;20181;-49
2024/01/09 01:28:23;;;;;;;20.00;9.00;;;-8.90;99.90;;;;;;5222459;28;20212;-51
2024/01/09 01:30:54;;;;;;;18.30;8.30;;;-8.80;99.90;;;;;;5222094;28;20471;-50
2024/01/09 01:33:24;;;;;;;18.63;8.17;;;-8.90;99.90;;;;;;5223252;28;20195;-51
2024/01/09 01:35:55;;;;;;;17.70;8.37;;;-8.90;99.90;;;;;;5207032;28;20985;-51
2024/01/09 01:38:25;;;;;;;17.73;8.57;;;-8.90;99.90;;;;;;5203643;28;20215;-49
2024/01/09 01:40:56;;;;;;;16.17;8.80;;;-8.90;99.90;;;;;;5221281;28;20230;-50
2024/01/09 01:43:27;;;;;;;22.97;8.40;;;-8.90;99.90;;;;;;5173336;28;20190;-49
2024/01/09 01:45:57;;;;;;;14.53;7.93;;;-8.90;99.90;;;;;;5206531;28;20251;-50
2024/01/09 01:48:29;;;;;;;12.70;6.90;;;-8.90;99.90;;;;;;5205826;28;20244;-51
2024/01/09 01:51:01;;;;;;;17.33;7.67;;;-8.90;99.90;;;;;;5223865;28;20734;-51
2024/01/09 01:53:33;;;;;;;19.23;7.10;;;-8.80;99.90;;;;;;5222215;28;20533;-50
2024/01/09 01:56:04;;;;;;;15.07;7.37;;;-8.80;99.90;;;;;;5212737;28;20450;-49
2024/01/09 01:58:35;;;;;;;22.60;8.50;;;-8.80;99.90;;;;;;5223162;28;20825;-51
2024/01/09 02:01:06;;;;;;;17.47;7.30;;;-8.80;99.90;;;;;;5207502;28;21016;-48
2024/01/09 02:03:37;;;;;;;20.37;6.90;;;-8.80;99.90;;;;;;5223090;28;20534;-52
2024/01/09 02:06:09;;;;;;;12.10;6.07;;;-8.80;99.90;;;;;;5221728;28;20558;-50
2024/01/09 02:08:43;;;;;;;22.13;7.30;;;-8.80;99.90;;;;;;5208292;28;20483;-49
2024/01/09 02:11:15;;;;;;;11.80;7.30;;;-8.80;99.90;;;;;;5207810;28;20535;-50
2024/01/09 02:13:45;;;;;;;16.37;7.40;;;-8.90;99.90;;;;;;5204392;28;20530;-49
2024/01/09 02:16:16;;;;;;;12.10;7.17;;;-8.90;99.90;;;;;;5224483;28;20523;-50
2024/01/09 02:18:46;;;;;;;11.90;6.20;;;-8.90;99.90;;;;;;5221542;28;20284;-50
2024/01/09 02:21:17;;;;;;;18.03;7.63;;;-8.90;99.90;;;;;;5220522;28;20322;-51
2024/01/09 02:23:48;;;;;;;18.13;7.70;;;-9.00;99.90;;;;;;5208782;28;20255;-49
2024/01/09 02:26:20;;;;;;;19.23;7.60;;;-9.00;99.90;;;;;;5187997;28;20265;-50
2024/01/09 02:28:55;;;;;;;13.83;7.20;;;-9.00;99.90;;;;;;5226416;28;20194;-51
2024/01/09 02:31:26;;;;;;;13.90;7.30;;;-9.00;99.90;;;;;;5220311;28;20450;-51
2024/01/09 02:33:57;;;;;;;13.13;6.60;;;-9.00;99.90;;;;;;5211352;28;20448;-49
2024/01/09 02:36:28;;;;;;;15.43;6.90;;;-9.00;99.90;;;;;;5203916;28;20195;-50
2024/01/09 02:38:59;;;;;;;15.17;7.03;;;-9.00;99.90;;;;;;5211801;28;20479;-50
2024/01/09 02:41:36;;;;;;;14.10;8.13;;;-9.00;99.90;;;;;;5208708;28;20360;-50
2024/01/09 02:44:07;;;;;;;13.60;6.40;;;-9.00;99.90;;;;;;5198804;28;20265;-50
2024/01/09 02:46:38;;;;;;;17.00;8.00;;;-9.00;99.90;;;;;;5220180;28;20601;-48
2024/01/09 02:49:11;;;;;;;14.03;7.67;;;-9.00;99.90;;;;;;5224125;28;20275;-50
2024/01/09 02:51:42;;;;;;;13.60;7.60;;;-9.10;99.90;;;;;;5202665;28;20212;-49
2024/01/09 02:54:13;;;;;;;15.80;7.63;;;-9.10;99.90;;;;;;5220252;28;20440;-48
2024/01/09 02:56:43;;;;;;;13.70;7.43;;;-9.10;99.90;;;;;;5206111;28;20450;-50
2024/01/09 02:59:14;;;;;;;14.53;6.87;;;-9.10;99.90;;;;;;5221877;28;20262;-50
2024/01/09 03:01:45;;;;;;;26.23;7.73;;;-9.10;99.90;;;;;;5203687;28;20447;-50
2024/01/09 03:04:15;;;;;;;17.17;7.90;;;-9.10;99.90;;;;;;5205416;28;20194;-51
2024/01/09 03:06:46;;;;;;;18.20;7.43;;;-9.10;99.90;;;;;;5203789;28;20206;-49
2024/01/09 03:09:17;;;;;;;16.23;8.03;;;-9.10;99.90;;;;;;5224856;28;20265;-50
2024/01/09 03:11:48;;;;;;;17.73;6.93;;;-9.20;99.90;;;;;;5221144;28;20479;-49
2024/01/09 03:14:18;;;;;;;13.33;6.97;;;-9.20;99.90;;;;;;5222593;28;20178;-51
2024/01/09 03:16:49;;;;;;;15.63;7.83;;;-9.20;99.90;;;;;;5222437;28;20194;-49
2024/01/09 03:19:20;;;;;;;17.80;7.77;;;-9.20;99.90;;;;;;5221057;28;20223;-48
2024/01/09 03:21:50;;;;;;;12.00;6.93;;;-9.20;99.90;;;;;;5223250;28;20186;-48
2024/01/09 03:24:21;;;;;;;19.60;8.37;;;-9.30;99.90;;;;;;5212735;28;20200;-52
2024/01/09 03:26:52;;;;;;;21.53;8.70;;;-9.30;99.90;;;;;;5222102;28;20182;-48
2024/01/09 03:29:22;;;;;;;16.87;7.07;;;-9.30;99.90;;;;;;5225611;28;20288;-49
2024/01/09 03:31:54;;;;;;;14.93;7.07;;;-9.30;99.90;;;;;;5223224;28;20673;-49
2024/01/09 03:34:24;;;;;;;21.07;8.07;;;-9.30;99.90;;;;;;5221505;28;20184;-49
2024/01/09 03:36:55;;;;;;;26.43;8.07;;;-9.20;99.90;;;;;;5227784;28;20443;-50
2024/01/09 03:39:26;;;;;;;20.53;8.50;;;-9.20;99.90;;;;;;5197330;28;20584;-50
2024/01/09 03:41:56;;;;;;;13.93;7.60;;;-9.20;99.90;;;;;;5224259;28;20243;-51
2024/01/09 03:44:27;;;;;;;17.00;8.07;;;-9.20;99.90;;;;;;5220390;28;20596;-48
2024/01/09 03:46:57;;;;;;;17.30;8.20;;;-9.30;99.90;;;;;;5214013;28;20358;-50
2024/01/09 03:49:28;;;;;;;16.47;8.83;;;-9.30;99.90;;;;;;5208266;28;20224;-49
2024/01/09 03:51:59;;;;;;;15.57;7.80;;;-9.30;99.90;;;;;;5226824;28;20265;-49
2024/01/09 03:54:29;;;;;;;17.80;8.30;;;-9.30;99.90;;;;;;5227822;28;20177;-52
2024/01/09 03:57:00;;;;;;;19.43;8.63;;;-9.30;99.90;;;;;;5227717;28;20236;-51
2024/01/09 03:59:31;;;;;;;15.93;7.80;;;-9.30;99.90;;;;;;5213418;28;20215;-49
2024/01/09 04:02:01;;;;;;;15.93;7.57;;;-9.30;99.90;;;;;;5222374;28;20646;-50
2024/01/09 04:04:32;;;;;;;16.30;8.50;;;-9.40;99.90;;;;;;5211027;28;20177;-49
2024/01/09 04:07:03;;;;;;;24.37;8.50;;;-9.30;99.90;;;;;;5225883;28;20582;-49
2024/01/09 04:09:33;;;;;;;19.60;8.80;;;-9.30;99.90;;;;;;5199629;28;20189;-49
2024/01/09 04:12:04;;;;;;;16.87;8.63;;;-9.30;99.90;;;;;;5219872;28;20191;-49
2024/01/09 04:14:35;;;;;;;16.50;7.07;;;-9.40;99.90;;;;;;5196286;28;20196;-49
2024/01/09 04:17:05;;;;;;;16.43;8.30;;;-9.40;99.90;;;;;;5224745;28;20548;-48
2024/01/09 04:19:39;;;;;;;17.73;8.30;;;-9.40;99.90;;;;;;5205711;28;20209;-49
2024/01/09 04:22:10;;;;;;;17.57;8.40;;;-9.40;99.90;;;;;;5207375;28;20191;-49
2024/01/09 04:24:41;;;;;;;19.40;8.83;;;-9.40;99.90;;;;;;5214439;28;20427;-49
2024/01/09 04:27:11;;;;;;;15.40;7.77;;;-9.40;99.90;;;;;;5209964;28;20204;-51
2024/01/09 04:29:42;;;;;;;17.30;8.60;;;-9.40;99.90;;;;;;5220192;28;20293;-50
2024/01/09 04:32:12;;;;;;;16.57;7.67;;;-9.40;99.90;;;;;;5220498;28;20565;-49
2024/01/09 04:34:43;;;;;;;17.97;8.50;;;-9.40;99.90;;;;;;5209068;28;20184;-51
2024/01/09 04:37:14;;;;;;;20.20;8.63;;;-9.40;99.90;;;;;;5208299;28;20212;-48
2024/01/09 04:39:44;;;;;;;25.50;8.17;;;-9.40;99.90;;;;;;5224690;28;20795;-52
2024/01/09 04:42:15;;;;;;;16.97;8.43;;;-9.50;99.90;;;;;;5207608;28;20196;-50
2024/01/09 04:44:46;;;;;;;22.97;8.97;;;-9.50;99.90;;;;;;5224469;28;20216;-49
2024/01/09 04:47:16;;;;;;;12.73;7.67;;;-9.50;99.90;;;;;;5210101;28;20474;-50
2024/01/09 04:49:48;;;;;;;22.70;8.83;;;-9.60;99.90;;;;;;5222881;28;20644;-49
2024/01/09 04:52:19;;;;;;;21.10;8.10;;;-9.60;99.90;;;;;;5224277;28;20536;-51
2024/01/09 04:54:49;;;;;;;18.47;8.37;;;-9.60;99.90;;;;;;5224642;28;20439;-51
2024/01/09 04:57:20;;;;;;;20.07;8.27;;;-9.50;99.90;;;;;;5225841;28;20218;-50
2024/01/09 04:59:50;;;;;;;20.73;8.17;;;-9.50;99.90;;;;;;5226808;28;20217;-51
2024/01/09 05:02:21;;;;;;;20.17;8.43;;;-9.50;99.90;;;;;;5208989;28;20562;-52
2024/01/09 05:04:52;;;;;;;17.40;8.57;;;-9.60;99.90;;;;;;5223152;28;20180;-52
2024/01/09 05:07:22;;;;;;;23.57;8.13;;;-9.60;99.90;;;;;;5225655;28;20204;-51
2024/01/09 05:09:53;;;;;;;16.13;8.60;;;-9.60;99.90;;;;;;5224429;28;20188;-51
2024/01/09 05:12:23;;;;;;;15.00;7.93;;;-9.70;99.90;;;;;;5209933;28;20271;-49
2024/01/09 05:14:54;;;;;;;15.20;8.43;;;-9.70;99.90;;;;;;5213612;28;20686;-50
2024/01/09 05:17:25;;;;;;;18.67;8.67;;;-9.70;99.90;;;;;;5224914;28;20562;-52
2024/01/09 05:19:56;;;;;;;21.60;8.73;;;-9.80;99.90;;;;;;5203221;28;20186;-51
2024/01/09 05:22:26;;;;;;;14.07;7.93;;;-9.80;99.90;;;;;;5204683;28;20175;-51
2024/01/09 05:24:57;;;;;;;20.60;8.97;;;-9.80;99.90;;;;;;5211848;28;20424;-52
2024/01/09 05:27:28;;;;;;;14.57;7.93;;;-9.80;99.90;;;;;;5214858;28;20206;-50
2024/01/09 05:29:58;;;;;;;20.33;8.20;;;-9.80;99.90;;;;;;5222388;28;20274;-50
2024/01/09 05:32:29;;;;;;;25.50;9.13;;;-9.80;99.90;;;;;;5204777;28;20185;-51
2024/01/09 05:35:01;;;;;;;23.03;9.63;;;-9.80;99.90;;;;;;5224988;28;20188;-52
2024/01/09 05:37:32;;;;;;;24.07;8.67;;;-9.90;99.90;;;;;;5210010;28;20198;-52
2024/01/09 05:40:04;;;;;;;17.13;8.27;;;-9.90;99.90;;;;;;5222850;28;20922;-51
2024/01/09 05:42:34;;;;;;;17.87;8.13;;;-9.80;99.90;;;;;;5200891;28;20180;-52
2024/01/09 05:45:05;;;;;;;21.70;8.90;;;-9.80;99.90;;;;;;5201665;28;20810;-52
2024/01/09 05:47:37;;;;;;;40.67;9.30;;;-9.80;99.90;;;;;;5223758;28;20197;-52
2024/01/09 05:50:08;;;;;;;15.80;8.53;;;-9.80;99.90;;;;;;5220066;28;20439;-50
2024/01/09 05:52:39;;;;;;;18.63;9.27;;;-9.80;99.90;;;;;;5208765;28;20433;-52
2024/01/09 05:55:09;;;;;;;20.87;10.07;;;-9.80;99.90;;;;;;5223044;28;21083;-50
2024/01/09 05:57:40;;;;;;;21.60;9.00;;;-9.80;99.90;;;;;;5224728;28;20540;-51
2024/01/09 06:00:11;;;;;;;16.70;9.20;;;-9.80;99.90;;;;;;5202490;28;20191;-50
2024/01/09 06:02:43;;;;;;;22.57;9.20;;;-9.80;99.90;;;;;;5223045;28;20180;-52
2024/01/09 06:05:13;;;;;;;23.17;9.03;;;-9.90;99.90;;;;;;5220119;28;20434;-51
2024/01/09 06:07:44;;;;;;;16.23;9.10;;;-9.80;99.90;;;;;;5220822;28;20467;-52
2024/01/09 06:10:15;;;;;;;18.87;8.73;;;-9.80;99.90;;;;;;5217303;28;20956;-51
2024/01/09 06:12:45;;;;;;;20.57;9.67;;;-9.80;99.90;;;;;;5204570;28;20175;-51
2024/01/09 06:15:16;;;;;;;23.60;9.17;;;-9.80;99.90;;;;;;5207309;28;20184;-52
2024/01/09 06:17:47;;;;;;;24.90;10.27;;;-9.80;99.90;;;;;;5217535;28;20220;-50
2024/01/09 06:20:18;;;;;;;17.50;9.50;;;-9.80;99.90;;;;;;5214989;28;20542;-52
2024/01/09 06:22:49;;;;;;;20.70;8.67;;;-9.80;99.90;;;;;;5204876;28;20427;-52
2024/01/09 06:25:19;;;;;;;17.03;9.00;;;-9.80;99.90;;;;;;5191383;28;20547;-52
2024/01/09 06:27:50;;;;;;;19.10;8.47;;;-9.90;99.90;;;;;;5217990;28;20427;-50
2024/01/09 06:30:20;;;;;;;27.37;10.20;;;-9.90;99.90;;;;;;5205154;28;20197;-52
2024/01/09 06:32:51;;;;;;;23.60;10.90;;;-10.00;99.90;;;;;;5218610;28;20641;-50
2024/01/09 06:35:21;;;;;;;26.30;10.43;;;-10.00;99.90;;;;;;5212848;28;20184;-53
2024/01/09 06:37:52;;;;;;;27.77;11.37;;;-10.00;99.90;;;;;;5223058;28;20211;-52
2024/01/09 06:40:24;;;;;;;29.17;11.23;;;-9.90;99.90;;;;;;5218455;28;20187;-51
2024/01/09 06:42:54;;;;;;;26.47;10.30;;;-9.90;99.90;;;;;;5208103;28;20656;-49
2024/01/09 06:45:25;;;;;;;32.90;12.13;;;-9.90;99.90;;;;;;5219129;28;20541;-51
2024/01/09 06:47:55;;;;;;;27.80;10.97;;;-9.90;99.90;;;;;;5207408;28;20272;-51
2024/01/09 06:50:26;;;;;;;25.43;10.70;;;-9.90;99.90;;;;;;5200091;28;20231;-50
2024/01/09 06:52:57;;;;;;;16.50;9.83;;;-9.90;99.90;;;;;;5207640;28;20188;-52
2024/01/09 06:55:27;;;;;;;22.87;10.83;;;-9.90;99.90;;;;;;5222756;28;20232;-51
2024/01/09 06:57:58;;;;;;;27.83;9.50;;;-10.00;99.90;;;;;;5220001;28;20329;-53
2024/01/09 07:00:28;;;;;;;27.80;10.50;;;-10.00;99.90;;;;;;5217032;28;20184;-52
2024/01/09 07:02:59;;;;;;;20.07;10.37;;;-10.00;99.90;;;;;;5206103;28;20172;-53
2024/01/09 07:05:30;;;;;;;23.13;9.67;;;-9.90;99.90;;;;;;5204072;28;20176;-53
2024/01/09 07:08:00;;;;;;;23.57;10.20;;;-9.90;99.90;;;;;;5205323;28;20215;-50
2024/01/09 07:10:31;;;;;;;19.10;10.03;;;-9.90;99.90;;;;;;5224625;28;20187;-51
2024/01/09 07:13:02;;;;;;;27.20;10.20;;;-9.90;99.90;;;;;;5209539;28;20653;-52
2024/01/09 07:15:33;;;;;;;30.07;9.73;;;-10.00;99.90;;;;;;5223209;28;20175;-52
2024/01/09 07:18:04;;;;;;;26.03;9.97;;;-10.00;99.90;;;;;;5220998;28;20811;-52
2024/01/09 07:20:35;;;;;;;22.10;10.20;;;-9.90;99.90;;;;;;5208254;28;20179;-51
2024/01/09 07:23:05;;;;;;;32.20;11.10;;;-9.90;99.90;;;;;;5206320;28;20900;-51
2024/01/09 07:25:36;;;;;;;20.37;9.23;;;-10.00;99.90;;;;;;5226234;28;20233;-52
2024/01/09 07:28:06;;;;;;;22.73;10.87;;;-9.90;99.90;;;;;;5209197;28;20614;-50
2024/01/09 07:30:37;;;;;;;21.80;10.30;;;-9.90;99.90;;;;;;5207553;28;20207;-51
2024/01/09 07:33:08;;;;;;;27.20;11.53;;;-9.90;99.90;;;;;;5225078;28;20191;-51
2024/01/09 07:35:38;;;;;;;33.60;14.37;;;-9.80;99.90;;;;;;5222580;28;20191;-51
2024/01/09 07:38:09;;;;;;;28.70;11.73;;;-9.80;99.90;;;;;;5226026;28;20214;-53
2024/01/09 07:40:39;;;;;;;23.37;11.60;;;-9.80;99.90;;;;;;5220622;28;20176;-53
2024/01/09 07:43:10;;;;;;;31.20;10.53;;;-9.80;99.90;;;;;;5208092;28;20215;-54
2024/01/09 07:45:41;;;;;;;29.60;12.40;;;-9.80;99.90;;;;;;5190681;28;20188;-54
2024/01/09 07:48:11;;;;;;;28.93;12.90;;;-9.80;99.90;;;;;;5206677;28;20219;-53
2024/01/09 07:50:42;;;;;;;31.20;11.63;;;-9.80;99.90;;;;;;5210191;28;20198;-52
2024/01/09 07:53:12;;;;;;;20.87;9.93;;;-9.80;99.90;;;;;;5209762;28;20258;-54
2024/01/09 07:55:43;;;;;;;25.03;10.83;;;-9.60;99.90;;;;;;5225629;28;20192;-52
2024/01/09 07:58:14;;;;;;;30.07;11.97;;;-9.70;99.90;;;;;;5204618;28;21923;-50
2024/01/09 08:00:46;;;;;;;23.90;11.77;;;-9.60;99.90;;;;;;5220571;28;20183;-51
2024/01/09 08:03:16;;;;;;;23.70;11.63;;;-9.70;99.90;;;;;;5222337;28;20206;-51
2024/01/09 08:05:47;;;;;;;24.60;10.23;;;-9.70;99.90;;;;;;5211985;28;20509;-51
2024/01/09 08:08:17;;;;;;;26.33;10.83;;;-9.60;99.90;;;;;;5212942;28;20207;-50
2024/01/09 08:10:48;;;;;;;22.57;10.00;;;-9.60;99.90;;;;;;5206996;28;20185;-49
2024/01/09 08:13:19;;;;;;;26.57;11.90;;;-9.60;99.90;;;;;;5210378;28;20296;-53
2024/01/09 08:15:49;;;;;;;26.77;10.70;;;-9.60;99.90;;;;;;5224837;28;20180;-50
2024/01/09 08:18:20;;;;;;;20.97;10.17;;;-9.60;99.90;;;;;;5219848;28;20219;-51
2024/01/09 08:20:50;;;;;;;26.57;11.93;;;-9.60;99.90;;;;;;5221497;28;20290;-51
2024/01/09 08:23:23;;;;;;;29.40;11.03;;;-9.60;99.90;;;;;;5220865;28;20193;-50
2024/01/09 08:25:53;;;;;;;21.90;10.47;;;-9.50;99.90;;;;;;5223304;28;20179;-52
2024/01/09 08:28:24;;;;;;;25.97;11.80;;;-9.50;99.90;;;;;;5212998;28;20447;-53
2024/01/09 08:30:55;;;;;;;31.47;12.50;;;-9.50;99.90;;;;;;5223377;28;20196;-51
2024/01/09 08:33:28;;;;;;;32.60;13.30;;;-9.50;99.90;;;;;;5221831;28;20483;-48
2024/01/09 08:35:58;;;;;;;29.80;13.30;;;-9.40;99.90;;;;;;5206051;28;20262;-50
2024/01/09 08:38:29;;;;;;;26.40;11.23;;;-9.40;99.90;;;;;;5220332;28;20498;-50
2024/01/09 08:41:02;;;;;;;26.10;12.23;;;-9.40;99.90;;;;;;5191273;28;20716;-49
2024/01/09 08:43:33;;;;;;;31.47;11.90;;;-9.30;99.90;;;;;;5224644;28;20193;-51
2024/01/09 08:46:03;;;;;;;29.87;12.97;;;-9.30;99.90;;;;;;5224405;28;20414;-51
2024/01/09 08:48:34;;;;;;;31.70;13.43;;;-9.30;99.90;;;;;;5225092;28;20633;-53
2024/01/09 08:51:05;;;;;;;34.10;12.57;;;-9.20;99.90;;;;;;5222856;28;20518;-51
2024/01/09 08:53:36;;;;;;;33.43;12.57;;;-9.20;99.90;;;;;;5207249;28;20183;-52
2024/01/09 08:56:08;;;;;;;34.37;13.30;;;-9.20;99.90;;;;;;5223520;28;20437;-54
2024/01/09 08:58:39;;;;;;;34.10;14.20;;;-9.10;99.90;;;;;;5207527;28;20253;-50
2024/01/09 09:01:10;;;;;;;22.87;11.83;;;-9.00;99.90;;;;;;5222172;28;20477;-52
2024/01/09 09:03:41;;;;;;;31.67;13.87;;;-9.00;99.90;;;;;;5219511;28;20429;-50
2024/01/09 09:06:12;;;;;;;39.13;14.40;;;-9.00;99.90;;;;;;5223060;28;20899;-52
2024/01/09 09:08:43;;;;;;;28.33;13.13;;;-9.00;99.90;;;;;;5223494;28;20291;-51
2024/01/09 09:11:16;;;;;;;27.93;13.00;;;-9.00;99.90;;;;;;5219270;28;20427;-51
2024/01/09 09:13:47;;;;;;;33.53;13.20;;;-8.80;99.90;;;;;;5201854;28;20224;-53
2024/01/09 09:16:18;;;;;;;30.47;13.80;;;-8.70;99.90;;;;;;5225917;28;20505;-50
2024/01/09 09:18:48;;;;;;;34.13;13.57;;;-8.60;99.90;;;;;;5207026;28;20207;-51
2024/01/09 09:21:19;;;;;;;27.13;14.00;;;-8.50;99.90;;;;;;5204921;28;20264;-51
2024/01/09 09:23:50;;;;;;;33.47;12.87;;;-8.50;99.90;;;;;;5221273;28;20182;-51
2024/01/09 09:26:20;;;;;;;36.27;12.97;;;-8.40;99.90;;;;;;5205690;28;20184;-51
2024/01/09 09:28:51;;;;;;;34.17;13.10;;;-8.40;99.90;;;;;;5222044;28;20613;-49
2024/01/09 09:31:22;;;;;;;30.80;13.90;;;-8.40;99.90;;;;;;5204759;28;20190;-51
2024/01/09 09:33:53;;;;;;;32.03;13.97;;;-8.40;99.90;;;;;;5219593;28;20181;-50
2024/01/09 09:36:24;;;;;;;28.27;13.07;;;-8.40;99.90;;;;;;5205130;28;20186;-51
2024/01/09 09:38:55;;;;;;;28.33;13.10;;;-8.40;99.90;;;;;;5201874;28;20571;-50
2024/01/09 09:41:26;;;;;;;35.47;14.90;;;-8.30;99.90;;;;;;5204221;28;20460;-50
2024/01/09 09:43:58;;;;;;;34.57;14.20;;;-8.30;99.90;;;;;;5189713;28;20190;-51
2024/01/09 09:46:31;;;;;;;27.17;13.50;;;-8.20;99.90;;;;;;5205477;28;20534;-51
2024/01/09 09:49:03;;;;;;;34.20;13.43;;;-8.20;99.90;;;;;;5207424;28;20443;-51
2024/01/09 09:51:35;;;;;;;33.47;14.03;;;-8.10;99.90;;;;;;5221126;28;20954;-51
2024/01/09 09:54:15;;;;;;;29.87;13.53;;;-8.10;99.90;;;;;;5254705;27;20990;-51
2024/01/09 09:56:46;;;;;;;39.00;14.33;;;-8.00;99.90;;;;;;5257131;28;20544;-50
2024/01/09 09:59:17;;;;;;;37.53;13.40;;;-8.00;99.90;;;;;;5254751;28;20442;-48
2024/01/09 10:01:48;;;;;;;28.67;12.60;;;-7.90;99.90;;;;;;5255858;28;20416;-50
2024/01/09 10:04:24;;;;;;;37.10;14.37;;;-7.70;99.90;;;;;;5235179;28;20186;-50
2024/01/09 10:06:57;;;;;;;34.17;13.93;;;-7.60;99.90;;;;;;5252426;28;20439;-50
2024/01/09 10:09:34;;;;;;;36.40;14.60;;;-7.50;99.90;;;;;;5254348;28;20437;-50
2024/01/09 10:12:05;;;;;;;29.87;13.67;;;-7.50;99.90;;;;;;5252513;28;20466;-49
2024/01/09 10:14:35;;;;;;;32.77;14.10;;;-7.50;99.90;;;;;;5256209;28;20438;-48
2024/01/09 10:17:06;;;;;;;38.70;12.80;;;-7.40;99.90;;;;;;5252988;28;20301;-49
2024/01/09 10:19:37;;;;;;;28.77;12.60;;;-7.30;99.90;;;;;;5252668;28;20273;-50
2024/01/09 10:22:07;;;;;;;26.03;12.70;;;-7.30;99.90;;;;;;5255533;28;20182;-50
2024/01/09 10:24:40;;;;;;;33.13;13.93;;;-7.20;99.90;;;;;;5255389;28;20507;-49
2024/01/09 10:27:11;;;;;;;25.80;12.87;;;-7.20;99.90;;;;;;5248727;28;20717;-50
2024/01/09 10:29:43;;;;;;;24.97;13.20;;;-7.10;99.90;;;;;;5253094;28;20443;-50
2024/01/09 10:32:14;;;;;;;31.53;12.37;;;-7.00;99.90;;;;;;5251217;28;20329;-51
2024/01/09 10:34:45;;;;;;;32.73;13.10;;;-7.00;99.90;;;;;;5253441;28;20520;-49
2024/01/09 10:37:15;;;;;;;36.77;14.03;;;-7.00;99.90;;;;;;5254596;28;21247;-50
2024/01/09 10:39:52;;;;;;;28.33;12.60;;;-6.90;99.90;;;;;;5254645;28;21040;-53
2024/01/09 10:42:22;;;;;;;31.20;14.33;;;-7.00;99.90;;;;;;5253951;28;20591;-50
2024/01/09 10:44:57;;;;;;;33.23;15.10;;;-6.90;99.90;;;;;;5252347;28;20953;-53
2024/01/09 10:47:31;;;;;;;27.57;13.70;;;-6.80;99.90;;;;;;5251772;28;20208;-53
2024/01/09 10:50:02;;;;;;;34.03;13.60;;;-6.70;99.90;;;;;;5267309;28;20467;-50
2024/01/09 10:52:34;;;;;;;27.70;11.73;;;-6.60;99.90;;;;;;5253455;28;20502;-52
2024/01/09 10:55:06;;;;;;;31.30;13.80;;;-6.60;99.90;;;;;;5256226;28;20447;-51
2024/01/09 10:57:39;;;;;;;28.83;12.53;;;-6.60;99.90;;;;;;5284824;27;20452;-53
2024/01/09 11:00:12;;;;;;;26.50;12.83;;;-6.50;99.90;;;;;;5249128;28;20493;-49
2024/01/09 11:02:43;;;;;;;32.90;13.30;;;-6.40;99.90;;;;;;5254169;28;20436;-52
2024/01/09 11:05:14;;;;;;;31.20;12.33;;;-6.30;99.90;;;;;;5236937;28;20444;-52
2024/01/09 11:07:47;;;;;;;25.83;12.60;;;-6.20;99.90;;;;;;5236055;28;20464;-51
2024/01/09 11:10:21;;;;;;;29.00;11.40;;;-6.20;99.90;;;;;;5237856;28;20433;-51
2024/01/09 11:12:53;;;;;;;30.70;12.47;;;-6.00;99.90;;;;;;5237797;28;20476;-53
2024/01/09 11:15:28;;;;;;;19.23;11.50;;;-5.90;99.90;;;;;;5240459;28;20511;-50
2024/01/09 11:18:09;;;;;;;22.50;11.30;;;-5.90;99.90;;;;;;5238609;28;20463;-50
2024/01/09 11:20:40;;;;;;;24.10;11.60;;;-5.80;99.90;;;;;;5235640;28;21072;-50
2024/01/09 11:23:11;;;;;;;29.13;11.20;;;-5.80;99.90;;;;;;5241998;28;21266;-52
2024/01/09 11:25:50;;;;;;;26.40;11.57;;;-5.70;99.90;;;;;;5237515;28;20210;-51
2024/01/09 11:28:36;;;;;;;23.00;11.60;;;-5.60;99.90;;;;;;5271598;28;20479;-52
2024/01/09 11:31:07;;;;;;;24.47;11.37;;;-5.60;99.90;;;;;;5271658;28;20479;-50
2024/01/09 11:33:41;;;;;;;25.20;11.40;;;-5.60;99.90;;;;;;5235665;28;20493;-52
2024/01/09 11:36:12;;;;;;;23.20;11.50;;;-5.60;99.90;;;;;;5239002;28;20438;-51
2024/01/09 11:38:43;;;;;;;21.00;10.10;;;-5.60;99.90;;;;;;5235936;28;20445;-51
2024/01/09 11:41:13;;;;;;;27.37;12.83;;;-5.50;99.90;;;;;;5236247;28;20252;-52
2024/01/09 11:43:56;;;;;;;27.43;12.37;;;-5.50;99.90;;;;;;5239461;28;20191;-50
2024/01/09 11:46:30;;;;;;;26.93;11.57;;;-5.50;99.90;;;;;;5239915;28;20225;-50
2024/01/09 11:49:02;;;;;;;28.57;10.90;;;-5.40;99.90;;;;;;5238288;28;20850;-51
2024/01/09 11:51:33;;;;;;;22.90;11.40;;;-5.30;99.90;;;;;;5237398;28;20439;-54
2024/01/09 11:54:08;;;;;;;24.33;10.77;;;-5.20;99.90;;;;;;5239540;28;20465;-52
2024/01/09 11:56:39;;;;;;;30.33;11.50;;;-5.20;99.90;;;;;;5238443;28;20929;-50
2024/01/09 11:59:10;;;;;;;20.00;8.87;;;-5.30;99.90;;;;;;5240690;28;20959;-50
2024/01/09 12:01:40;;;;;;;25.60;11.40;;;-5.30;99.90;;;;;;5240167;28;20175;-52
2024/01/09 12:04:11;;;;;;;33.40;11.33;;;-5.30;99.90;;;;;;5242804;28;20186;-49
2024/01/09 12:06:42;;;;;;;25.60;11.47;;;-5.20;99.90;;;;;;5243408;28;20692;-50
2024/01/09 12:09:13;;;;;;;28.57;11.43;;;-5.20;99.90;;;;;;5237860;28;20242;-50
2024/01/09 12:11:43;;;;;;;20.03;10.57;;;-5.10;99.90;;;;;;5241049;28;20557;-51
2024/01/09 12:14:14;;;;;;;21.60;9.80;;;-5.00;99.90;;;;;;5238597;28;20291;-50
2024/01/09 12:16:45;;;;;;;26.43;11.00;;;-5.00;99.90;;;;;;5241839;28;20274;-51
2024/01/09 12:19:16;;;;;;;15.90;9.63;;;-5.00;99.90;;;;;;5241914;28;20980;-49
2024/01/09 12:21:47;;;;;;;22.80;10.00;;;-4.90;99.90;;;;;;5237928;28;20175;-51
2024/01/09 12:24:18;;;;;;;17.20;9.50;;;-4.90;99.90;;;;;;5239167;28;20235;-51
2024/01/09 12:26:49;;;;;;;20.83;9.87;;;-4.90;99.90;;;;;;5238182;28;20718;-50
2024/01/09 12:29:20;;;;;;;20.60;9.80;;;-4.90;99.90;;;;;;5237876;28;20523;-51
2024/01/09 12:31:50;;;;;;;21.23;10.40;;;-4.90;99.90;;;;;;5238010;28;20460;-51
2024/01/09 12:34:21;;;;;;;17.23;9.30;;;-4.80;99.90;;;;;;5239287;28;20609;-50
2024/01/09 12:36:52;;;;;;;16.70;8.90;;;-4.80;99.90;;;;;;5239529;28;20186;-51
2024/01/09 12:39:23;;;;;;;21.50;10.47;;;-4.70;99.90;;;;;;5240199;28;20178;-51
2024/01/09 12:42:10;;;;;;;17.20;9.87;;;-4.70;99.90;;;;;;5240844;28;21499;-50
2024/01/09 12:44:43;;;;;;;21.63;9.53;;;-4.70;99.90;;;;;;5235801;28;20456;-50
2024/01/09 12:47:14;;;;;;;26.87;12.27;;;-4.60;99.90;;;;;;5238907;28;20949;-50
2024/01/09 12:49:46;;;;;;;25.50;10.43;;;-4.70;99.90;;;;;;5241939;28;20435;-52
2024/01/09 12:52:20;;;;;;;26.37;10.37;;;-4.60;99.90;;;;;;5237681;28;20214;-53